Wetterdaten: Dienstag, 21.08.2012
Datum Zeit Temperatur Luftfeuchte Regen Wind Richtung Richtung Taupunkt Windchill Windben
21.08.2012 00:00 18,9 C 89 % 0,0 l/m 3,1 km/h (1 Bft) N 360 17,0 C 19,8 C 0,0 km/h (0 Bft)
21.08.2012 00:05 18,9 C 89 % 0,0 l/m 1,1 km/h (1 Bft) N-NO 22 17,0 C 19,6 C 0,0 km/h (0 Bft)
21.08.2012 00:10 18,9 C 87 % 0,0 l/m 1,4 km/h (1 Bft) N 360 16,7 C 19,7 C 1,6 km/h (1 Bft)
21.08.2012 00:15 18,7 C 86 % 0,0 l/m 1,4 km/h (1 Bft) S 180 16,3 C 19,8 C 2,7 km/h (1 Bft)
21.08.2012 00:20 18,7 C 87 % 0,0 l/m 2,1 km/h (1 Bft) N-NO 22 16,5 C 19,8 C 2,1 km/h (1 Bft)
21.08.2012 00:25 18,7 C 88 % 0,0 l/m 2,7 km/h (1 Bft) S 180 16,7 C 19,6 C 5,5 km/h (1 Bft)
21.08.2012 00:30 18,8 C 87 % 0,0 l/m 3,1 km/h (1 Bft) S-SW 202 16,6 C 19,8 C 0,0 km/h (0 Bft)
21.08.2012 00:35 18,9 C 88 % 0,0 l/m 4,0 km/h (1 Bft) S-SO 157 16,9 C 20,2 C 18,5 km/h (3 Bft)
21.08.2012 00:40 19,2 C 87 % 0,0 l/m 5,3 km/h (1 Bft) SO 135 17,0 C 20,3 C 13,2 km/h (3 Bft)
21.08.2012 00:45 19,6 C 86 % 0,0 l/m 6,3 km/h (2 Bft) SO 135 17,2 C 20,4 C 8,0 km/h (2 Bft)
21.08.2012 00:50 19,5 C 85 % 0,0 l/m 7,4 km/h (2 Bft) S-SW 202 16,9 C 20,1 C 12,1 km/h (2 Bft)
21.08.2012 00:55 19,4 C 84 % 0,0 l/m 8,7 km/h (2 Bft) O-SO 112 16,6 C 19,3 C 21,1 km/h (4 Bft)
21.08.2012 01:00 19,2 C 85 % 0,0 l/m 7,7 km/h (2 Bft) O-SO 112 16,6 C 19,4 C 5,1 km/h (1 Bft)
21.08.2012 01:05 18,9 C 85 % 0,0 l/m 6,8 km/h (2 Bft) SO 135 16,3 C 19,1 C 9,8 km/h (2 Bft)
21.08.2012 01:10 18,7 C 85 % 0,0 l/m 6,9 km/h (2 Bft) S-SO 157 16,1 C 18,7 C 8,5 km/h (2 Bft)
21.08.2012 01:15 18,5 C 87 % 0,0 l/m 6,0 km/h (2 Bft) SO 135 16,3 C 18,7 C 3,1 km/h (1 Bft)
21.08.2012 01:20 18,3 C 87 % 0,0 l/m 4,7 km/h (1 Bft) SO 135 16,1 C 18,5 C 4,3 km/h (1 Bft)
21.08.2012 01:25 18,2 C 88 % 0,0 l/m 4,7 km/h (1 Bft) SO 135 16,2 C 18,2 C 4,0 km/h (1 Bft)
21.08.2012 01:30 18,1 C 88 % 0,0 l/m 4,7 km/h (1 Bft) N 360 16,1 C 18,0 C 4,0 km/h (1 Bft)
21.08.2012 01:35 18,0 C 88 % 0,0 l/m 3,7 km/h (1 Bft) O-SO 112 16,0 C 17,8 C 2,6 km/h (1 Bft)
21.08.2012 01:40 17,8 C 89 % 0,0 l/m 2,9 km/h (1 Bft) O-SO 112 16,0 C 17,7 C 2,6 km/h (1 Bft)
21.08.2012 01:45 17,5 C 89 % 0,0 l/m 1,1 km/h (1 Bft) N-NO 22 15,7 C 17,4 C 0,0 km/h (0 Bft)
21.08.2012 01:50 17,2 C 89 % 0,7 l/m 0,6 km/h (0 Bft) N 360 15,4 C 17,2 C 2,7 km/h (1 Bft)
21.08.2012 01:55 16,8 C 89 % 0,0 l/m 1,8 km/h (1 Bft) N-NW 337 15,0 C 16,8 C 3,9 km/h (1 Bft)
21.08.2012 02:00 16,7 C 89 % 0,0 l/m 2,6 km/h (1 Bft) N 360 14,9 C 16,6 C 0,0 km/h (0 Bft)
21.08.2012 02:05 16,6 C 90 % 0,0 l/m 1,9 km/h (1 Bft) N 360 15,0 C 16,4 C 3,7 km/h (1 Bft)
21.08.2012 02:10 16,6 C 90 % 0,0 l/m 1,6 km/h (1 Bft) NO 45 15,0 C 16,3 C 0,0 km/h (0 Bft)
21.08.2012 02:15 16,6 C 90 % 0,7 l/m 1,4 km/h (1 Bft) N-NO 22 15,0 C 16,4 C 3,2 km/h (1 Bft)
21.08.2012 02:20 16,7 C 91 % 0,0 l/m 1,0 km/h (0 Bft) N 360 15,2 C 16,4 C 3,7 km/h (1 Bft)
21.08.2012 02:25 16,7 C 91 % 0,0 l/m 3,1 km/h (1 Bft) W-NW 292 15,2 C 16,5 C 3,9 km/h (1 Bft)
21.08.2012 02:30 16,7 C 91 % 0,0 l/m 3,2 km/h (1 Bft) N-NW 337 15,2 C 16,5 C 5,6 km/h (1 Bft)
21.08.2012 02:35 16,7 C 92 % 0,7 l/m 3,9 km/h (1 Bft) W-NW 292 15,4 C 16,6 C 6,6 km/h (2 Bft)
21.08.2012 02:40 16,8 C 92 % 0,0 l/m 4,7 km/h (1 Bft) N-NW 337 15,5 C 16,7 C 2,3 km/h (1 Bft)
21.08.2012 02:45 16,8 C 92 % 0,0 l/m 4,3 km/h (1 Bft) S 180 15,5 C 16,7 C 3,9 km/h (1 Bft)
21.08.2012 02:50 16,7 C 92 % 0,0 l/m 2,7 km/h (1 Bft) NW 315 15,4 C 16,7 C 0,0 km/h (0 Bft)
21.08.2012 02:55 16,7 C 92 % 0,0 l/m 2,3 km/h (1 Bft) W 270 15,4 C 16,6 C 8,5 km/h (2 Bft)
21.08.2012 03:00 16,7 C 92 % 0,0 l/m 2,7 km/h (1 Bft) W 270 15,4 C 16,6 C 4,2 km/h (1 Bft)
21.08.2012 03:05 16,6 C 92 % 0,0 l/m 2,7 km/h (1 Bft) W-NW 292 15,3 C 16,6 C 5,0 km/h (1 Bft)
21.08.2012 03:10 16,6 C 92 % 0,0 l/m 1,9 km/h (1 Bft) N 360 15,3 C 16,6 C 1,9 km/h (1 Bft)
21.08.2012 03:15 16,5 C 92 % 0,0 l/m 2,3 km/h (1 Bft) W-NW 292 15,2 C 16,5 C 3,4 km/h (1 Bft)
21.08.2012 03:20 16,5 C 92 % 0,0 l/m 1,8 km/h (1 Bft) N 360 15,2 C 16,5 C 0,0 km/h (0 Bft)
21.08.2012 03:25 16,4 C 93 % 0,0 l/m 2,1 km/h (1 Bft) N-NW 337 15,3 C 16,3 C 4,8 km/h (1 Bft)
21.08.2012 03:30 16,5 C 93 % 0,0 l/m 2,1 km/h (1 Bft) N-NO 22 15,4 C 16,3 C 2,1 km/h (1 Bft)
21.08.2012 03:35 16,3 C 93 % 0,0 l/m 1,3 km/h (1 Bft) N-NO 22 15,2 C 16,3 C 0,0 km/h (0 Bft)
21.08.2012 03:40 16,2 C 92 % 0,0 l/m 0,5 km/h (0 Bft) N 360 14,9 C 16,2 C 0,0 km/h (0 Bft)
21.08.2012 03:45 16,2 C 93 % 0,0 l/m 0,0 km/h (0 Bft) N-NO 22 15,1 C 16,0 C 0,0 km/h (0 Bft)
21.08.2012 03:50 16,2 C 93 % 0,0 l/m 0,0 km/h (0 Bft) NO 45 15,1 C 16,0 C 0,0 km/h (0 Bft)
21.08.2012 03:55 16,1 C 93 % 0,0 l/m 0,3 km/h (0 Bft) N-NW 337 15,0 C 15,9 C 0,0 km/h (0 Bft)
21.08.2012 04:00 15,9 C 94 % 0,0 l/m 0,3 km/h (0 Bft) N-NW 337 14,9 C 15,8 C 0,0 km/h (0 Bft)
21.08.2012 04:05 16,1 C 93 % 0,0 l/m 0,3 km/h (0 Bft) N-NO 22 15,0 C 15,8 C 1,6 km/h (1 Bft)
21.08.2012 04:10 16,1 C 93 % 0,0 l/m 0,3 km/h (0 Bft) N 360 15,0 C 15,8 C 0,0 km/h (0 Bft)
21.08.2012 04:15 16,2 C 93 % 0,0 l/m 0,3 km/h (0 Bft) N-NO 22 15,1 C 15,8 C 0,0 km/h (0 Bft)
21.08.2012 04:20 16,0 C 93 % 0,0 l/m 0,3 km/h (0 Bft) N-NO 22 14,9 C 15,9 C 1,8 km/h (1 Bft)
21.08.2012 04:25 15,7 C 94 % 0,0 l/m 0,8 km/h (0 Bft) NO 45 14,7 C 15,8 C 0,0 km/h (0 Bft)
21.08.2012 04:30 15,6 C 94 % 0,0 l/m 1,1 km/h (1 Bft) W-NW 292 14,6 C 15,6 C 2,6 km/h (1 Bft)
21.08.2012 04:35 15,5 C 94 % 0,0 l/m 1,3 km/h (1 Bft) N-NW 337 14,5 C 15,4 C 1,9 km/h (1 Bft)
21.08.2012 04:40 15,4 C 94 % 0,0 l/m 1,1 km/h (1 Bft) N 360 14,4 C 15,4 C 0,0 km/h (0 Bft)
21.08.2012 04:45 15,5 C 94 % 0,0 l/m 0,3 km/h (0 Bft) N 360 14,5 C 15,2 C 2,4 km/h (1 Bft)
21.08.2012 04:50 15,6 C 94 % 0,0 l/m 0,6 km/h (0 Bft) N 360 14,6 C 15,2 C 2,9 km/h (1 Bft)
21.08.2012 04:55 15,7 C 94 % 0,0 l/m 1,8 km/h (1 Bft) O-NO 67 14,7 C 15,4 C 1,6 km/h (1 Bft)
21.08.2012 05:00 15,7 C 94 % 0,0 l/m 1,8 km/h (1 Bft) N 360 14,7 C 15,4 C 2,6 km/h (1 Bft)
21.08.2012 05:05 15,5 C 94 % 0,0 l/m 1,1 km/h (1 Bft) N 360 14,5 C 15,4 C 0,0 km/h (0 Bft)
21.08.2012 05:10 15,5 C 94 % 0,0 l/m 0,8 km/h (0 Bft) N-NW 337 14,5 C 15,3 C 0,0 km/h (0 Bft)
21.08.2012 05:15 15,5 C 94 % 0,0 l/m 0,3 km/h (0 Bft) N 360 14,5 C 15,2 C 1,6 km/h (1 Bft)
21.08.2012 05:20 15,5 C 94 % 0,0 l/m 0,5 km/h (0 Bft) N-NO 22 14,5 C 15,1 C 2,3 km/h (1 Bft)
21.08.2012 05:25 15,1 C 94 % 0,0 l/m 1,1 km/h (1 Bft) N 360 14,1 C 15,1 C 0,0 km/h (0 Bft)
21.08.2012 05:30 15,1 C 94 % 0,0 l/m 0,8 km/h (0 Bft) NO 45 14,1 C 15,0 C 0,0 km/h (0 Bft)
21.08.2012 05:35 14,9 C 94 % 0,0 l/m 0,0 km/h (0 Bft) N 360 13,9 C 14,8 C 0,0 km/h (0 Bft)
21.08.2012 05:40 14,9 C 94 % 0,0 l/m 0,0 km/h (0 Bft) N-NO 22 13,9 C 14,7 C 0,0 km/h (0 Bft)
21.08.2012 05:45 14,9 C 94 % 0,0 l/m 0,0 km/h (0 Bft) N 360 13,9 C 14,6 C 0,0 km/h (0 Bft)
21.08.2012 05:50 14,6 C 94 % 0,0 l/m 0,0 km/h (0 Bft) N 360 13,6 C 14,5 C 0,0 km/h (0 Bft)
21.08.2012 05:55 14,9 C 94 % 0,0 l/m 0,2 km/h (0 Bft) N-NO 22 13,9 C 14,6 C 0,0 km/h (0 Bft)
21.08.2012 06:00 14,9 C 94 % 0,0 l/m 0,2 km/h (0 Bft) N-NO 22 13,9 C 14,6 C 0,0 km/h (0 Bft)
21.08.2012 06:05 15,0 C 94 % 0,0 l/m 0,2 km/h (0 Bft) N 360 14,0 C 14,6 C 0,0 km/h (0 Bft)
21.08.2012 06:10 14,9 C 94 % 0,0 l/m 0,2 km/h (0 Bft) O-NO 67 13,9 C 14,6 C 0,0 km/h (0 Bft)
21.08.2012 06:15 14,4 C 94 % 0,0 l/m 0,0 km/h (0 Bft) O-SO 112 13,4 C 14,4 C 0,0 km/h (0 Bft)
21.08.2012 06:20 14,3 C 94 % 0,0 l/m 0,0 km/h (0 Bft) O 90 13,3 C 14,2 C 0,0 km/h (0 Bft)
21.08.2012 06:25 14,2 C 94 % 0,0 l/m 0,0 km/h (0 Bft) O 90 13,2 C 14,0 C 0,0 km/h (0 Bft)
21.08.2012 06:30 14,3 C 94 % 0,0 l/m 0,0 km/h (0 Bft) NO 45 13,3 C 13,9 C 1,6 km/h (1 Bft)
21.08.2012 06:35 14,3 C 94 % 0,0 l/m 0,0 km/h (0 Bft) N-NO 22 13,3 C 14,0 C 0,0 km/h (0 Bft)
21.08.2012 06:40 14,4 C 94 % 0,0 l/m 0,0 km/h (0 Bft) N 360 13,4 C 14,1 C 0,0 km/h (0 Bft)
21.08.2012 06:45 14,2 C 94 % 0,0 l/m 0,0 km/h (0 Bft) W-SW 247 13,2 C 14,0 C 0,0 km/h (0 Bft)
21.08.2012 06:50 14,1 C 94 % 0,0 l/m 0,0 km/h (0 Bft) N 360 13,1 C 14,0 C 0,0 km/h (0 Bft)
21.08.2012 06:55 14,2 C 94 % 0,0 l/m 0,2 km/h (0 Bft) SW 225 13,2 C 14,3 C 1,6 km/h (1 Bft)
21.08.2012 07:00 14,2 C 94 % 0,0 l/m 0,2 km/h (0 Bft) SW 225 13,2 C 14,5 C 0,0 km/h (0 Bft)
21.08.2012 07:05 14,3 C 94 % 0,0 l/m 0,2 km/h (0 Bft) SW 225 13,3 C 14,6 C 0,0 km/h (0 Bft)
21.08.2012 07:10 14,4 C 94 % 0,0 l/m 0,0 km/h (0 Bft) N-NO 22 13,4 C 14,6 C 0,0 km/h (0 Bft)
21.08.2012 07:15 14,5 C 94 % 0,0 l/m 0,0 km/h (0 Bft) SW 225 13,5 C 15,4 C 0,0 km/h (0 Bft)
21.08.2012 07:20 14,5 C 94 % 0,0 l/m 0,0 km/h (0 Bft) SW 225 13,5 C 15,8 C 0,0 km/h (0 Bft)
21.08.2012 07:25 14,4 C 94 % 0,0 l/m 0,0 km/h (0 Bft) N-NW 337 13,4 C 16,1 C 1,6 km/h (1 Bft)
21.08.2012 07:30 14,5 C 94 % 0,0 l/m 0,2 km/h (0 Bft) W-NW 292 13,5 C 16,3 C 0,0 km/h (0 Bft)
21.08.2012 07:35 14,7 C 94 % 0,0 l/m 0,2 km/h (0 Bft) NW 315 13,7 C 17,1 C 0,0 km/h (0 Bft)
21.08.2012 07:40 15,3 C 94 % 0,0 l/m 0,0 km/h (0 Bft) N 360 14,3 C 17,8 C 0,0 km/h (0 Bft)
21.08.2012 07:45 15,2 C 94 % 0,0 l/m 0,0 km/h (0 Bft) N 360 14,2 C 19,0 C 0,0 km/h (0 Bft)
21.08.2012 07:50 15,6 C 94 % 0,0 l/m 0,3 km/h (0 Bft) N-NW 337 14,6 C 19,3 C 0,0 km/h (0 Bft)
21.08.2012 07:55 17,7 C 92 % 0,0 l/m 0,3 km/h (0 Bft) N 360 16,4 C 20,0 C 0,0 km/h (0 Bft)
21.08.2012 08:00 18,3 C 92 % 0,0 l/m 0,0 km/h (0 Bft) N-NO 22 17,0 C 20,8 C 0,0 km/h (0 Bft)
21.08.2012 08:05 18,8 C 90 % 0,0 l/m 0,0 km/h (0 Bft) N 360 17,3 C 21,8 C 0,0 km/h (0 Bft)
21.08.2012 08:10 19,5 C 89 % 0,0 l/m 0,0 km/h (0 Bft) N-NO 22 17,8 C 22,6 C 0,0 km/h (0 Bft)
21.08.2012 08:15 19,7 C 86 % 0,0 l/m 0,3 km/h (0 Bft) N-NO 22 17,3 C 23,1 C 1,9 km/h (1 Bft)
21.08.2012 08:20 20,5 C 86 % 0,0 l/m 0,3 km/h (0 Bft) N-NO 22 18,1 C 23,3 C 0,0 km/h (0 Bft)
21.08.2012 08:25 21,3 C 85 % 0,0 l/m 0,2 km/h (0 Bft) NO 45 18,7 C 24,6 C 0,0 km/h (0 Bft)
21.08.2012 08:30 21,2 C 83 % 0,0 l/m 0,0 km/h (0 Bft) O-SO 112 18,2 C 25,1 C 0,0 km/h (0 Bft)
21.08.2012 08:35 21,4 C 82 % 0,0 l/m 0,0 km/h (0 Bft) NW 315 18,2 C 25,9 C 0,0 km/h (0 Bft)
21.08.2012 08:40 21,3 C 79 % 0,0 l/m 0,0 km/h (0 Bft) N-NW 337 17,5 C 25,8 C 0,0 km/h (0 Bft)
21.08.2012 08:45 21,5 C 81 % 0,0 l/m 0,0 km/h (0 Bft) O-NO 67 18,8 C 26,1 C 0,0 km/h (0 Bft)
21.08.2012 08:50 21,5 C 79 % 0,0 l/m 0,0 km/h (0 Bft) N-NO 22 18,3 C 26,6 C 0,0 km/h (0 Bft)
21.08.2012 08:55 21,3 C 77 % 0,0 l/m 0,0 km/h (0 Bft) N-NO 22 17,9 C 26,7 C 0,0 km/h (0 Bft)
21.08.2012 09:00 21,3 C 76 % 0,0 l/m 0,0 km/h (0 Bft) N-NO 22 17,7 C 26,8 C 0,0 km/h (0 Bft)
21.08.2012 09:05 21,5 C 77 % 0,0 l/m 0,0 km/h (0 Bft) N 360 18,4 C 26,8 C 0,0 km/h (0 Bft)
21.08.2012 09:10 21,7 C 78 % 0,0 l/m 0,0 km/h (0 Bft) NO 45 18,9 C 27,2 C 0,0 km/h (0 Bft)
21.08.2012 09:15 21,9 C 76 % 0,0 l/m 0,2 km/h (0 Bft) N-NO 22 18,6 C 27,4 C 0,0 km/h (0 Bft)
21.08.2012 09:20 22,1 C 77 % 0,0 l/m 0,2 km/h (0 Bft) N 360 19,0 C 27,5 C 0,0 km/h (0 Bft)
21.08.2012 09:25 22,3 C 76 % 0,0 l/m 0,2 km/h (0 Bft) N 360 19,3 C 28,0 C 0,0 km/h (0 Bft)
21.08.2012 09:30 22,6 C 75 % 0,0 l/m 0,0 km/h (0 Bft) N-NO 22 19,3 C 28,5 C 0,0 km/h (0 Bft)
21.08.2012 09:35 22,8 C 73 % 0,0 l/m 0,0 km/h (0 Bft) N-NW 337 19,2 C 29,3 C 0,0 km/h (0 Bft)
21.08.2012 09:40 23,1 C 72 % 0,0 l/m 0,0 km/h (0 Bft) N 360 19,4 C 29,4 C 0,0 km/h (0 Bft)
21.08.2012 09:45 23,3 C 73 % 0,0 l/m 0,2 km/h (0 Bft) N 360 19,8 C 29,7 C 1,9 km/h (1 Bft)
21.08.2012 09:50 23,5 C 73 % 0,0 l/m 0,2 km/h (0 Bft) NO 45 20,3 C 30,0 C 0,0 km/h (0 Bft)
21.08.2012 09:55 24,0 C 72 % 0,0 l/m 0,2 km/h (0 Bft) N 360 20,8 C 30,7 C 0,0 km/h (0 Bft)
21.08.2012 10:00 24,3 C 70 % 0,0 l/m 0,2 km/h (0 Bft) N 360 20,6 C 30,9 C 0,0 km/h (0 Bft)
21.08.2012 10:05 24,7 C 70 % 0,0 l/m 0,3 km/h (0 Bft) SO 135 20,4 C 31,2 C 0,0 km/h (0 Bft)
21.08.2012 10:10 24,9 C 68 % 0,0 l/m 0,2 km/h (0 Bft) NO 45 20,2 C 31,6 C 2,1 km/h (1 Bft)
21.08.2012 10:15 25,0 C 69 % 0,0 l/m 0,3 km/h (0 Bft) N-NO 22 20,2 C 31,3 C 0,0 km/h (0 Bft)
21.08.2012 10:20 25,0 C 66 % 0,0 l/m 0,3 km/h (0 Bft) N 360 19,2 C 31,2 C 0,0 km/h (0 Bft)
21.08.2012 10:25 25,4 C 67 % 0,0 l/m 0,0 km/h (0 Bft) NO 45 20,0 C 31,7 C 0,0 km/h (0 Bft)
21.08.2012 10:30 25,6 C 67 % 0,0 l/m 0,0 km/h (0 Bft) N 360 20,0 C 32,1 C 0,0 km/h (0 Bft)
21.08.2012 10:35 25,9 C 63 % 0,0 l/m 0,0 km/h (0 Bft) O-NO 67 19,1 C 32,4 C 0,0 km/h (0 Bft)
21.08.2012 10:40 25,9 C 59 % 0,0 l/m 0,0 km/h (0 Bft) N-NO 22 18,3 C 32,9 C 0,0 km/h (0 Bft)
21.08.2012 10:45 26,1 C 51 % 0,0 l/m 0,0 km/h (0 Bft) N 360 16,0 C 32,9 C 0,0 km/h (0 Bft)
21.08.2012 10:50 26,3 C 46 % 0,0 l/m 0,5 km/h (0 Bft) N 360 14,5 C 32,8 C 1,6 km/h (1 Bft)
21.08.2012 10:55 26,6 C 48 % 0,0 l/m 0,6 km/h (0 Bft) NO 45 15,5 C 32,5 C 0,0 km/h (0 Bft)
21.08.2012 11:00 26,6 C 47 % 0,0 l/m 0,2 km/h (0 Bft) N-NO 22 15,8 C 32,9 C 0,0 km/h (0 Bft)
21.08.2012 11:05 26,9 C 42 % 0,0 l/m 0,2 km/h (0 Bft) N-NO 22 14,0 C 33,4 C 0,0 km/h (0 Bft)
21.08.2012 11:10 27,1 C 44 % 0,0 l/m 0,2 km/h (0 Bft) N-NO 22 14,9 C 33,2 C 0,0 km/h (0 Bft)
21.08.2012 11:15 27,5 C 44 % 0,0 l/m 1,0 km/h (0 Bft) N-NO 22 15,1 C 32,9 C 2,7 km/h (1 Bft)
21.08.2012 11:20 27,9 C 43 % 0,0 l/m 1,1 km/h (1 Bft) N-NO 22 14,8 C 32,5 C 0,0 km/h (0 Bft)
21.08.2012 11:25 28,5 C 41 % 0,0 l/m 0,8 km/h (0 Bft) S 180 14,6 C 33,0 C 0,0 km/h (0 Bft)
21.08.2012 11:30 28,8 C 45 % 0,0 l/m 0,8 km/h (0 Bft) S-SO 157 16,1 C 33,2 C 1,8 km/h (1 Bft)
21.08.2012 11:35 29,2 C 41 % 0,0 l/m 1,1 km/h (1 Bft) N-NW 337 15,0 C 33,4 C 0,0 km/h (0 Bft)
21.08.2012 11:40 29,3 C 45 % 0,0 l/m 1,3 km/h (1 Bft) O-NO 67 16,1 C 33,4 C 0,0 km/h (0 Bft)
21.08.2012 11:45 29,6 C 45 % 0,0 l/m 1,1 km/h (1 Bft) W-SW 247 16,5 C 33,2 C 0,0 km/h (0 Bft)
21.08.2012 11:50 29,6 C 42 % 0,0 l/m 0,8 km/h (0 Bft) S-SO 157 15,3 C 33,4 C 0,0 km/h (0 Bft)
21.08.2012 11:55 30,2 C 42 % 0,0 l/m 1,1 km/h (1 Bft) W-SW 247 15,8 C 33,4 C 0,0 km/h (0 Bft)
21.08.2012 12:00 30,5 C 43 % 0,0 l/m 1,6 km/h (1 Bft) S-SW 202 16,6 C 33,4 C 2,1 km/h (1 Bft)
21.08.2012 12:05 29,6 C 45 % 0,0 l/m 1,4 km/h (1 Bft) N-NW 337 16,4 C 33,5 C 2,3 km/h (1 Bft)
21.08.2012 12:10 30,0 C 45 % 0,0 l/m 1,4 km/h (1 Bft) W-SW 247 16,7 C 33,5 C 3,9 km/h (1 Bft)
21.08.2012 12:15 31,0 C 42 % 0,0 l/m 1,4 km/h (1 Bft) O-SO 112 16,6 C 33,9 C 2,4 km/h (1 Bft)
21.08.2012 12:20 30,8 C 44 % 0,0 l/m 1,3 km/h (1 Bft) NO 45 17,1 C 34,2 C 1,9 km/h (1 Bft)
21.08.2012 12:25 30,4 C 42 % 0,0 l/m 0,6 km/h (0 Bft) O-SO 112 16,0 C 34,9 C 0,0 km/h (0 Bft)
21.08.2012 12:30 30,3 C 44 % 0,0 l/m 0,3 km/h (0 Bft) NO 45 16,7 C 35,1 C 0,0 km/h (0 Bft)
21.08.2012 12:35 30,1 C 42 % 0,0 l/m 1,4 km/h (1 Bft) W 270 15,7 C 34,4 C 2,9 km/h (1 Bft)
21.08.2012 12:40 30,4 C 40 % 0,0 l/m 2,1 km/h (1 Bft) W-NW 292 15,3 C 34,1 C 1,8 km/h (1 Bft)
21.08.2012 12:45 30,6 C 40 % 0,0 l/m 2,1 km/h (1 Bft) S-SO 157 15,4 C 34,0 C 0,0 km/h (0 Bft)
21.08.2012 12:50 30,4 C 42 % 0,0 l/m 1,6 km/h (1 Bft) W-SW 247 16,0 C 34,4 C 0,0 km/h (0 Bft)
21.08.2012 12:55 30,2 C 41 % 0,0 l/m 1,1 km/h (1 Bft) W 270 15,5 C 34,6 C 2,1 km/h (1 Bft)
21.08.2012 13:00 30,6 C 40 % 0,0 l/m 1,4 km/h (1 Bft) W 270 15,4 C 34,6 C 4,0 km/h (1 Bft)
21.08.2012 13:05 30,9 C 38 % 0,0 l/m 1,6 km/h (1 Bft) N 360 14,9 C 34,5 C 4,3 km/h (1 Bft)
21.08.2012 13:10 30,7 C 38 % 0,0 l/m 1,9 km/h (1 Bft) N 360 14,7 C 34,2 C 3,2 km/h (1 Bft)
21.08.2012 13:15 30,3 C 38 % 0,0 l/m 1,9 km/h (1 Bft) N-NO 22 14,4 C 33,8 C 3,5 km/h (1 Bft)
21.08.2012 13:20 30,7 C 37 % 0,0 l/m 1,4 km/h (1 Bft) NO 45 14,3 C 33,7 C 0,0 km/h (0 Bft)
21.08.2012 13:25 30,8 C 39 % 0,0 l/m 0,8 km/h (0 Bft) NO 45 15,2 C 33,7 C 3,4 km/h (1 Bft)
21.08.2012 13:30 30,7 C 40 % 0,0 l/m 1,0 km/h (0 Bft) O-SO 112 15,5 C 33,6 C 2,7 km/h (1 Bft)
21.08.2012 13:35 31,2 C 40 % 0,0 l/m 0,8 km/h (0 Bft) O-SO 112 16,0 C 33,4 C 0,0 km/h (0 Bft)
21.08.2012 13:40 30,7 C 39 % 0,0 l/m 0,8 km/h (0 Bft) S 180 15,1 C 33,4 C 2,9 km/h (1 Bft)
21.08.2012 13:45 31,3 C 36 % 0,0 l/m 1,3 km/h (1 Bft) N-NO 22 14,4 C 33,1 C 0,0 km/h (0 Bft)
21.08.2012 13:50 31,1 C 38 % 0,0 l/m 1,0 km/h (0 Bft) O-NO 67 15,1 C 33,4 C 0,0 km/h (0 Bft)
21.08.2012 13:55 31,3 C 39 % 0,0 l/m 1,1 km/h (1 Bft) SO 135 15,7 C 34,0 C 6,0 km/h (2 Bft)
21.08.2012 14:00 31,6 C 39 % 0,0 l/m 2,1 km/h (1 Bft) S-SW 202 15,9 C 34,1 C 5,1 km/h (1 Bft)
21.08.2012 14:05 31,0 C 38 % 0,0 l/m 2,7 km/h (1 Bft) S 180 15,0 C 34,3 C 1,8 km/h (1 Bft)
21.08.2012 14:10 30,7 C 39 % 0,0 l/m 3,2 km/h (1 Bft) W-SW 247 15,1 C 34,0 C 5,8 km/h (2 Bft)
21.08.2012 14:15 31,5 C 38 % 0,0 l/m 3,5 km/h (1 Bft) O-SO 112 15,4 C 33,8 C 2,9 km/h (1 Bft)
21.08.2012 14:20 31,8 C 42 % 0,0 l/m 3,4 km/h (1 Bft) O 90 17,3 C 33,7 C 3,1 km/h (1 Bft)
21.08.2012 14:25 31,7 C 38 % 0,0 l/m 2,6 km/h (1 Bft) W-SW 247 15,6 C 34,1 C 1,8 km/h (1 Bft)
21.08.2012 14:30 30,6 C 38 % 0,0 l/m 2,6 km/h (1 Bft) W-SW 247 14,6 C 34,4 C 5,0 km/h (1 Bft)
21.08.2012 14:35 31,2 C 37 % 0,0 l/m 1,6 km/h (1 Bft) N-NO 22 14,8 C 34,7 C 0,0 km/h (0 Bft)
21.08.2012 14:40 31,2 C 36 % 0,0 l/m 2,1 km/h (1 Bft) SW 225 14,3 C 34,9 C 3,7 km/h (1 Bft)
21.08.2012 14:45 31,3 C 37 % 0,0 l/m 3,4 km/h (1 Bft) S 180 14,8 C 34,4 C 4,2 km/h (1 Bft)
21.08.2012 14:50 31,5 C 36 % 0,0 l/m 3,9 km/h (1 Bft) SO 135 14,6 C 34,3 C 3,5 km/h (1 Bft)
21.08.2012 14:55 31,5 C 34 % 0,0 l/m 4,2 km/h (1 Bft) W 270 13,7 C 34,0 C 3,9 km/h (1 Bft)
21.08.2012 15:00 31,8 C 37 % 0,0 l/m 3,9 km/h (1 Bft) W-SW 247 15,3 C 33,8 C 2,6 km/h (1 Bft)
21.08.2012 15:05 31,7 C 36 % 0,0 l/m 3,9 km/h (1 Bft) S-SW 202 14,8 C 33,8 C 6,0 km/h (2 Bft)
21.08.2012 15:10 31,9 C 33 % 0,0 l/m 4,0 km/h (1 Bft) S 180 13,6 C 33,9 C 6,8 km/h (2 Bft)
21.08.2012 15:15 31,6 C 34 % 0,0 l/m 4,0 km/h (1 Bft) O-SO 112 13,8 C 33,7 C 4,8 km/h (1 Bft)
21.08.2012 15:20 31,6 C 34 % 0,0 l/m 3,1 km/h (1 Bft) N 360 13,8 C 34,0 C 0,0 km/h (0 Bft)
21.08.2012 15:25 31,9 C 33 % 0,0 l/m 1,8 km/h (1 Bft) SW 225 13,6 C 34,6 C 2,3 km/h (1 Bft)
21.08.2012 15:30 31,8 C 36 % 0,0 l/m 1,9 km/h (1 Bft) W-SW 247 14,9 C 34,8 C 4,3 km/h (1 Bft)
21.08.2012 15:35 31,0 C 35 % 0,0 l/m 2,4 km/h (1 Bft) S-SO 157 13,7 C 34,6 C 3,4 km/h (1 Bft)
21.08.2012 15:40 31,8 C 35 % 0,0 l/m 2,6 km/h (1 Bft) S 180 14,4 C 34,7 C 3,4 km/h (1 Bft)
21.08.2012 15:45 31,8 C 34 % 0,0 l/m 2,9 km/h (1 Bft) S 180 14,0 C 34,5 C 4,3 km/h (1 Bft)
21.08.2012 15:50 31,7 C 34 % 0,0 l/m 3,4 km/h (1 Bft) SO 135 13,9 C 34,3 C 3,1 km/h (1 Bft)
21.08.2012 15:55 31,6 C 38 % 0,0 l/m 2,1 km/h (1 Bft) W-SW 247 15,5 C 34,6 C 2,9 km/h (1 Bft)
21.08.2012 16:00 31,6 C 35 % 0,0 l/m 1,6 km/h (1 Bft) SO 135 14,2 C 34,9 C 2,3 km/h (1 Bft)
21.08.2012 16:05 31,7 C 36 % 0,0 l/m 1,9 km/h (1 Bft) S 180 14,8 C 35,1 C 3,9 km/h (1 Bft)
21.08.2012 16:10 31,6 C 35 % 0,0 l/m 1,9 km/h (1 Bft) SO 135 14,2 C 34,9 C 4,8 km/h (1 Bft)
21.08.2012 16:15 31,2 C 33 % 0,0 l/m 3,1 km/h (1 Bft) W-SW 247 13,0 C 34,5 C 4,5 km/h (1 Bft)
21.08.2012 16:20 30,6 C 35 % 0,0 l/m 3,2 km/h (1 Bft) S 180 13,4 C 34,1 C 2,9 km/h (1 Bft)
21.08.2012 16:25 30,5 C 35 % 0,0 l/m 1,9 km/h (1 Bft) O-NO 67 13,3 C 34,3 C 2,1 km/h (1 Bft)
21.08.2012 16:30 30,4 C 34 % 0,0 l/m 1,0 km/h (0 Bft) N 360 12,7 C 34,6 C 0,0 km/h (0 Bft)
21.08.2012 16:35 30,1 C 36 % 0,0 l/m 1,8 km/h (1 Bft) SO 135 13,4 C 34,6 C 4,5 km/h (1 Bft)
21.08.2012 16:40 29,9 C 36 % 0,0 l/m 1,9 km/h (1 Bft) SO 135 13,2 C 34,5 C 2,4 km/h (1 Bft)
21.08.2012 16:45 29,6 C 37 % 0,0 l/m 1,9 km/h (1 Bft) S 180 13,3 C 34,6 C 1,9 km/h (1 Bft)
21.08.2012 16:50 29,6 C 38 % 0,0 l/m 2,3 km/h (1 Bft) W-SW 247 13,8 C 34,5 C 4,2 km/h (1 Bft)
21.08.2012 16:55 29,3 C 38 % 0,0 l/m 2,3 km/h (1 Bft) S-SW 202 13,5 C 34,3 C 1,8 km/h (1 Bft)
21.08.2012 17:00 28,9 C 39 % 0,0 l/m 1,8 km/h (1 Bft) W 270 13,5 C 34,5 C 2,6 km/h (1 Bft)
21.08.2012 17:05 28,5 C 39 % 0,0 l/m 1,1 km/h (1 Bft) O-SO 112 13,2 C 34,7 C 0,0 km/h (0 Bft)
21.08.2012 17:10 28,3 C 40 % 0,0 l/m 0,8 km/h (0 Bft) N-NW 337 13,4 C 34,9 C 0,0 km/h (0 Bft)
21.08.2012 17:15 28,0 C 42 % 0,0 l/m 0,0 km/h (0 Bft) SO 135 13,9 C 35,3 C 0,0 km/h (0 Bft)
21.08.2012 17:20 27,9 C 43 % 0,0 l/m 0,0 km/h (0 Bft) O-SO 112 14,1 C 35,6 C 0,0 km/h (0 Bft)
21.08.2012 17:25 27,5 C 46 % 0,0 l/m 0,0 km/h (0 Bft) S-SO 157 14,8 C 35,8 C 0,0 km/h (0 Bft)
21.08.2012 17:30 27,7 C 46 % 0,0 l/m 0,0 km/h (0 Bft) N 360 15,0 C 35,9 C 0,0 km/h (0 Bft)
21.08.2012 17:35 27,9 C 45 % 0,0 l/m 0,2 km/h (0 Bft) O-SO 112 14,8 C 35,7 C 0,0 km/h (0 Bft)
21.08.2012 17:40 27,6 C 47 % 0,0 l/m 0,5 km/h (0 Bft) W 270 15,3 C 35,3 C 0,0 km/h (0 Bft)
21.08.2012 17:45 27,3 C 49 % 0,0 l/m 0,3 km/h (0 Bft) NO 45 15,6 C 34,7 C 0,0 km/h (0 Bft)
21.08.2012 17:50 27,2 C 49 % 0,0 l/m 0,0 km/h (0 Bft) NO 45 15,5 C 34,8 C 0,0 km/h (0 Bft)
21.08.2012 17:55 27,1 C 49 % 0,0 l/m 0,2 km/h (0 Bft) N-NO 22 15,4 C 34,3 C 0,0 km/h (0 Bft)
21.08.2012 18:00 26,7 C 51 % 0,0 l/m 0,2 km/h (0 Bft) NO 45 15,7 C 33,8 C 0,0 km/h (0 Bft)
21.08.2012 18:05 26,9 C 50 % 0,0 l/m 0,0 km/h (0 Bft) NO 45 15,6 C 33,6 C 0,0 km/h (0 Bft)
21.08.2012 18:10 26,8 C 50 % 0,0 l/m 0,0 km/h (0 Bft) O 90 15,5 C 33,4 C 0,0 km/h (0 Bft)
21.08.2012 18:15 26,6 C 52 % 0,0 l/m 0,2 km/h (0 Bft) W 270 15,9 C 33,4 C 0,0 km/h (0 Bft)
21.08.2012 18:20 26,7 C 52 % 0,0 l/m 0,3 km/h (0 Bft) O-NO 67 16,0 C 33,2 C 0,0 km/h (0 Bft)
21.08.2012 18:25 26,6 C 54 % 0,0 l/m 0,3 km/h (0 Bft) N-NO 22 16,5 C 33,3 C 1,8 km/h (1 Bft)
21.08.2012 18:30 26,5 C 54 % 0,0 l/m 0,2 km/h (0 Bft) N 360 16,4 C 33,1 C 0,0 km/h (0 Bft)
21.08.2012 18:35 26,4 C 54 % 0,0 l/m 0,2 km/h (0 Bft) N-NO 22 16,3 C 32,8 C 0,0 km/h (0 Bft)
21.08.2012 18:40 26,3 C 54 % 0,0 l/m 0,3 km/h (0 Bft) N-NW 337 16,2 C 32,5 C 4,5 km/h (1 Bft)
21.08.2012 18:45 26,3 C 52 % 0,0 l/m 0,5 km/h (0 Bft) N 360 15,6 C 31,8 C 0,0 km/h (0 Bft)
21.08.2012 18:50 26,1 C 52 % 0,0 l/m 0,8 km/h (0 Bft) N-NO 22 15,5 C 30,9 C 2,6 km/h (1 Bft)
21.08.2012 18:55 25,8 C 56 % 0,0 l/m 0,6 km/h (0 Bft) N-NO 22 16,3 C 29,4 C 2,1 km/h (1 Bft)
21.08.2012 19:00 25,6 C 57 % 0,0 l/m 0,5 km/h (0 Bft) NO 45 16,4 C 28,9 C 0,0 km/h (0 Bft)
21.08.2012 19:05 25,4 C 57 % 0,0 l/m 0,3 km/h (0 Bft) NO 45 16,2 C 28,4 C 0,0 km/h (0 Bft)
21.08.2012 19:10 25,0 C 58 % 0,0 l/m 0,3 km/h (0 Bft) N 360 16,1 C 27,9 C 1,9 km/h (1 Bft)
21.08.2012 19:15 24,6 C 60 % 0,0 l/m 0,2 km/h (0 Bft) N-NO 22 16,3 C 27,1 C 0,0 km/h (0 Bft)
21.08.2012 19:20 24,4 C 60 % 0,0 l/m 0,2 km/h (0 Bft) N 360 16,1 C 26,5 C 0,0 km/h (0 Bft)
21.08.2012 19:25 24,1 C 62 % 0,0 l/m 0,0 km/h (0 Bft) N-NO 22 16,4 C 25,8 C 0,0 km/h (0 Bft)
21.08.2012 19:30 23,9 C 63 % 0,0 l/m 0,0 km/h (0 Bft) NO 45 16,4 C 25,5 C 0,0 km/h (0 Bft)
21.08.2012 19:35 23,4 C 66 % 0,0 l/m 0,0 km/h (0 Bft) NO 45 16,7 C 25,0 C 0,0 km/h (0 Bft)
21.08.2012 19:40 23,4 C 66 % 0,0 l/m 0,0 km/h (0 Bft) N-NO 22 16,7 C 24,6 C 0,0 km/h (0 Bft)
21.08.2012 19:45 23,2 C 66 % 0,0 l/m 0,0 km/h (0 Bft) N-NO 22 16,5 C 24,0 C 0,0 km/h (0 Bft)
21.08.2012 19:50 23,0 C 66 % 0,0 l/m 0,0 km/h (0 Bft) NO 45 16,3 C 23,6 C 0,0 km/h (0 Bft)
21.08.2012 19:55 22,6 C 68 % 0,0 l/m 0,2 km/h (0 Bft) NO 45 16,4 C 23,1 C 0,0 km/h (0 Bft)
21.08.2012 20:00 22,4 C 71 % 0,0 l/m 0,3 km/h (0 Bft) W-NW 292 16,9 C 22,7 C 1,9 km/h (1 Bft)
21.08.2012 20:05 22,2 C 70 % 0,0 l/m 0,5 km/h (0 Bft) NO 45 16,5 C 22,4 C 2,3 km/h (1 Bft)
21.08.2012 20:10 22,1 C 70 % 0,0 l/m 0,5 km/h (0 Bft) NO 45 16,4 C 22,2 C 1,6 km/h (1 Bft)
21.08.2012 20:15 21,8 C 71 % 0,0 l/m 0,2 km/h (0 Bft) SO 135 16,3 C 21,7 C 0,0 km/h (0 Bft)
21.08.2012 20:20 21,3 C 73 % 0,0 l/m 0,0 km/h (0 Bft) NO 45 16,3 C 21,4 C 0,0 km/h (0 Bft)
21.08.2012 20:25 21,2 C 74 % 0,0 l/m 0,2 km/h (0 Bft) N-NO 22 16,4 C 21,1 C 0,0 km/h (0 Bft)
21.08.2012 20:30 21,2 C 74 % 0,0 l/m 0,5 km/h (0 Bft) NO 45 16,4 C 20,9 C 1,8 km/h (1 Bft)
21.08.2012 20:35 21,2 C 74 % 0,0 l/m 0,8 km/h (0 Bft) NO 45 16,4 C 20,8 C 0,0 km/h (0 Bft)
21.08.2012 20:40 20,7 C 74 % 0,0 l/m 0,8 km/h (0 Bft) NO 45 15,9 C 20,6 C 2,1 km/h (1 Bft)
21.08.2012 20:45 20,3 C 74 % 0,0 l/m 0,5 km/h (0 Bft) NO 45 15,5 C 20,4 C 0,0 km/h (0 Bft)
21.08.2012 20:50 20,2 C 74 % 0,0 l/m 0,2 km/h (0 Bft) NO 45 15,4 C 20,2 C 0,0 km/h (0 Bft)
21.08.2012 20:55 20,1 C 74 % 0,0 l/m 0,0 km/h (0 Bft) N-NO 22 15,3 C 20,0 C 0,0 km/h (0 Bft)
21.08.2012 21:00 20,1 C 74 % 0,0 l/m 0,0 km/h (0 Bft) N-NO 22 15,3 C 19,9 C 0,0 km/h (0 Bft)
21.08.2012 21:05 20,0 C 74 % 0,0 l/m 0,0 km/h (0 Bft) NO 45 15,2 C 19,8 C 0,0 km/h (0 Bft)
21.08.2012 21:10 20,0 C 74 % 0,0 l/m 0,0 km/h (0 Bft) N-NO 22 15,2 C 19,8 C 0,0 km/h (0 Bft)
21.08.2012 21:15 20,0 C 73 % 0,0 l/m 0,0 km/h (0 Bft) SO 135 15,0 C 19,7 C 0,0 km/h (0 Bft)
21.08.2012 21:20 20,0 C 73 % 0,0 l/m 0,0 km/h (0 Bft) N-NO 22 15,0 C 19,7 C 0,0 km/h (0 Bft)
21.08.2012 21:25 19,8 C 73 % 0,0 l/m 0,0 km/h (0 Bft) SW 225 14,8 C 19,7 C 0,0 km/h (0 Bft)
21.08.2012 21:30 19,8 C 74 % 0,0 l/m 0,0 km/h (0 Bft) SO 135 15,0 C 19,7 C 0,0 km/h (0 Bft)
21.08.2012 21:35 19,7 C 74 % 0,0 l/m 0,0 km/h (0 Bft) O-NO 67 14,9 C 19,7 C 0,0 km/h (0 Bft)
21.08.2012 21:40 19,7 C 74 % 0,0 l/m 0,0 km/h (0 Bft) NO 45 14,9 C 19,7 C 0,0 km/h (0 Bft)
21.08.2012 21:45 19,7 C 74 % 0,0 l/m 0,2 km/h (0 Bft) NO 45 14,9 C 19,7 C 0,0 km/h (0 Bft)
21.08.2012 21:50 19,6 C 74 % 0,0 l/m 0,2 km/h (0 Bft) N-NO 22 14,8 C 19,6 C 0,0 km/h (0 Bft)
21.08.2012 21:55 19,4 C 74 % 0,0 l/m 0,0 km/h (0 Bft) O 90 14,6 C 19,5 C 0,0 km/h (0 Bft)
21.08.2012 22:00 19,4 C 74 % 0,0 l/m 0,0 km/h (0 Bft) N-NO 22 14,6 C 19,4 C 0,0 km/h (0 Bft)
21.08.2012 22:05 19,3 C 74 % 0,0 l/m 0,0 km/h (0 Bft) S-SW 202 14,5 C 19,3 C 0,0 km/h (0 Bft)
21.08.2012 22:10 19,3 C 74 % 0,0 l/m 0,0 km/h (0 Bft) SO 135 14,5 C 19,3 C 0,0 km/h (0 Bft)
21.08.2012 22:15 19,1 C 75 % 0,0 l/m 0,0 km/h (0 Bft) W-SW 247 14,6 C 19,2 C 2,4 km/h (1 Bft)
21.08.2012 22:20 19,1 C 75 % 0,0 l/m 0,0 km/h (0 Bft) NO 45 14,6 C 19,2 C 0,0 km/h (0 Bft)
21.08.2012 22:25 19,2 C 74 % 0,0 l/m 0,2 km/h (0 Bft) NO 45 14,4 C 19,2 C 0,0 km/h (0 Bft)
21.08.2012 22:30 19,3 C 75 % 0,0 l/m 0,0 km/h (0 Bft) NO 45 14,8 C 19,2 C 0,0 km/h (0 Bft)
21.08.2012 22:35 19,2 C 74 % 0,0 l/m 0,0 km/h (0 Bft) NO 45 14,4 C 19,3 C 0,0 km/h (0 Bft)
21.08.2012 22:40 19,4 C 74 % 0,0 l/m 0,0 km/h (0 Bft) NO 45 14,6 C 19,2 C 0,0 km/h (0 Bft)
21.08.2012 22:45 19,1 C 74 % 0,0 l/m 0,0 km/h (0 Bft) N-NO 22 14,4 C 19,1 C 0,0 km/h (0 Bft)
21.08.2012 22:50 19,0 C 74 % 0,0 l/m 0,0 km/h (0 Bft) N 360 14,3 C 19,0 C 0,0 km/h (0 Bft)
21.08.2012 22:55 18,9 C 74 % 0,0 l/m 0,0 km/h (0 Bft) NO 45 14,2 C 18,9 C 0,0 km/h (0 Bft)
21.08.2012 23:00 18,8 C 74 % 0,0 l/m 0,2 km/h (0 Bft) S 180 14,1 C 18,9 C 0,0 km/h (0 Bft)
21.08.2012 23:05 18,8 C 74 % 0,0 l/m 0,2 km/h (0 Bft) O-SO 112 14,1 C 19,0 C 0,0 km/h (0 Bft)
21.08.2012 23:10 18,8 C 74 % 0,0 l/m 0,2 km/h (0 Bft) NO 45 14,1 C 19,0 C 3,7 km/h (1 Bft)
21.08.2012 23:15 18,9 C 74 % 0,0 l/m 0,2 km/h (0 Bft) S-SW 202 14,2 C 19,0 C 0,0 km/h (0 Bft)
21.08.2012 23:20 18,8 C 74 % 0,0 l/m 0,2 km/h (0 Bft) S 180 14,1 C 19,0 C 0,0 km/h (0 Bft)
21.08.2012 23:25 18,8 C 74 % 0,0 l/m 0,0 km/h (0 Bft) S-SW 202 14,1 C 19,0 C 0,0 km/h (0 Bft)
21.08.2012 23:30 18,8 C 74 % 0,0 l/m 0,2 km/h (0 Bft) S-SW 202 14,1 C 19,0 C 0,0 km/h (0 Bft)
21.08.2012 23:35 18,7 C 74 % 0,0 l/m 0,2 km/h (0 Bft) SW 225 14,0 C 18,9 C 0,0 km/h (0 Bft)
21.08.2012 23:40 18,7 C 74 % 0,0 l/m 0,0 km/h (0 Bft) SO 135 14,0 C 18,8 C 0,0 km/h (0 Bft)
21.08.2012 23:45 18,5 C 74 % 0,0 l/m 0,0 km/h (0 Bft) S-SW 202 13,8 C 18,6 C 0,0 km/h (0 Bft)
21.08.2012 23:50 18,4 C 74 % 0,0 l/m 0,0 km/h (0 Bft) SO 135 13,7 C 18,5 C 0,0 km/h (0 Bft)
21.08.2012 23:55 18,1 C 76 % 0,0 l/m 0,0 km/h (0 Bft) N 360 13,8 C 18,2 C 0,0 km/h (0 Bft)
_ Min-Zeit 06:50 16:15 - 23:55 - - 16:30 06:30 23:55
Minimum _ 14,1 C 33 % - 0,0 km/h (0 Bft) - - 12,7 C 13,9 C 0,0 km/h (0 Bft)
_ Max-Zeit 15:25 07:50 02:35 00:55 - - 09:55 17:30 00:55
Maximum _ 31,9 C 94 % 0,7 l/m 8,7 km/h
O-SO (2 Bft)
- - 20,8 C 35,9 C 21,1 km/h
O-SO (4 Bft)
Durchschnitt _ 22,5 C 68 % #2,1 l/m 1,1 km/h (1 Bft) N - 15,5 C 24,7 C 1,5 km/h (1 Bft)